sensor_id;sensor_type;location;lat;lon;timestamp;P1;durP1;ratioP1;P2;durP2;ratioP2
41719;SDS011;27405;53.316;-6.294;2023-03-14T00:01:39;21.25;;;3.67;;
41719;SDS011;27405;53.316;-6.294;2023-03-14T00:04:05;14.05;;;3.10;;
41719;SDS011;27405;53.316;-6.294;2023-03-14T00:06:30;18.13;;;3.60;;
41719;SDS011;27405;53.316;-6.294;2023-03-14T00:08:56;14.27;;;3.28;;
41719;SDS011;27405;53.316;-6.294;2023-03-14T00:11:22;20.05;;;3.47;;
41719;SDS011;27405;53.316;-6.294;2023-03-14T00:13:48;15.07;;;3.25;;
41719;SDS011;27405;53.316;-6.294;2023-03-14T00:16:14;16.85;;;3.40;;
41719;SDS011;27405;53.316;-6.294;2023-03-14T00:18:40;16.17;;;3.38;;
41719;SDS011;27405;53.316;-6.294;2023-03-14T00:21:07;11.27;;;3.00;;
41719;SDS011;27405;53.316;-6.294;2023-03-14T00:23:34;17.65;;;3.08;;
41719;SDS011;27405;53.316;-6.294;2023-03-14T00:26:04;19.40;;;3.67;;
41719;SDS011;27405;53.316;-6.294;2023-03-14T00:28:38;14.48;;;3.40;;
41719;SDS011;27405;53.316;-6.294;2023-03-14T00:31:07;22.85;;;3.67;;
41719;SDS011;27405;53.316;-6.294;2023-03-14T00:33:35;14.48;;;3.47;;
41719;SDS011;27405;53.316;-6.294;2023-03-14T00:36:03;16.48;;;3.65;;
41719;SDS011;27405;53.316;-6.294;2023-03-14T00:38:31;16.80;;;3.47;;
41719;SDS011;27405;53.316;-6.294;2023-03-14T00:40:57;12.30;;;3.10;;
41719;SDS011;27405;53.316;-6.294;2023-03-14T00:43:23;12.38;;;3.03;;
41719;SDS011;27405;53.316;-6.294;2023-03-14T00:45:50;15.10;;;3.25;;
41719;SDS011;27405;53.316;-6.294;2023-03-14T00:48:16;15.25;;;3.03;;
41719;SDS011;27405;53.316;-6.294;2023-03-14T00:50:43;18.88;;;3.05;;
41719;SDS011;27405;53.316;-6.294;2023-03-14T00:53:09;12.43;;;2.63;;
41719;SDS011;27405;53.316;-6.294;2023-03-14T00:55:38;14.60;;;2.65;;
41719;SDS011;27405;53.316;-6.294;2023-03-14T00:58:07;13.40;;;2.83;;
41719;SDS011;27405;53.316;-6.294;2023-03-14T01:00:33;18.80;;;2.97;;
41719;SDS011;27405;53.316;-6.294;2023-03-14T01:03:00;11.95;;;3.10;;
41719;SDS011;27405;53.316;-6.294;2023-03-14T01:05:26;17.20;;;2.47;;
41719;SDS011;27405;53.316;-6.294;2023-03-14T01:07:52;14.02;;;2.45;;
41719;SDS011;27405;53.316;-6.294;2023-03-14T01:10:17;11.90;;;2.60;;
41719;SDS011;27405;53.316;-6.294;2023-03-14T01:12:43;13.50;;;2.40;;
41719;SDS011;27405;53.316;-6.294;2023-03-14T01:15:09;10.02;;;2.30;;
41719;SDS011;27405;53.316;-6.294;2023-03-14T01:17:35;15.50;;;2.63;;
41719;SDS011;27405;53.316;-6.294;2023-03-14T01:20:03;15.57;;;2.90;;
41719;SDS011;27405;53.316;-6.294;2023-03-14T01:22:29;14.27;;;2.38;;
41719;SDS011;27405;53.316;-6.294;2023-03-14T01:24:55;10.65;;;2.53;;
41719;SDS011;27405;53.316;-6.294;2023-03-14T01:27:21;13.63;;;2.60;;
41719;SDS011;27405;53.316;-6.294;2023-03-14T01:29:46;13.70;;;2.85;;
41719;SDS011;27405;53.316;-6.294;2023-03-14T01:32:12;12.90;;;2.50;;
41719;SDS011;27405;53.316;-6.294;2023-03-14T01:34:38;13.18;;;3.00;;
41719;SDS011;27405;53.316;-6.294;2023-03-14T01:37:04;16.88;;;3.45;;
41719;SDS011;27405;53.316;-6.294;2023-03-14T01:39:30;13.88;;;3.28;;
41719;SDS011;27405;53.316;-6.294;2023-03-14T01:41:56;16.98;;;3.03;;
41719;SDS011;27405;53.316;-6.294;2023-03-14T01:44:21;12.18;;;2.45;;
41719;SDS011;27405;53.316;-6.294;2023-03-14T01:46:47;9.25;;;2.10;;
41719;SDS011;27405;53.316;-6.294;2023-03-14T01:54:36;11.98;;;2.30;;
41719;SDS011;27405;53.316;-6.294;2023-03-14T01:57:15;15.82;;;3.13;;
41719;SDS011;27405;53.316;-6.294;2023-03-14T01:59:49;17.38;;;4.18;;
41719;SDS011;27405;53.316;-6.294;2023-03-14T02:02:19;12.27;;;2.70;;
41719;SDS011;27405;53.316;-6.294;2023-03-14T02:04:46;13.23;;;2.78;;
41719;SDS011;27405;53.316;-6.294;2023-03-14T02:10:04;13.85;;;2.47;;
41719;SDS011;27405;53.316;-6.294;2023-03-14T02:12:31;13.68;;;2.80;;
41719;SDS011;27405;53.316;-6.294;2023-03-14T02:14:58;16.73;;;2.58;;
41719;SDS011;27405;53.316;-6.294;2023-03-14T02:17:24;10.65;;;2.55;;
41719;SDS011;27405;53.316;-6.294;2023-03-14T02:22:30;4.93;;;1.75;;
41719;SDS011;27405;53.316;-6.294;2023-03-14T02:27:49;4.82;;;2.50;;
41719;SDS011;27405;53.316;-6.294;2023-03-14T02:30:19;7.80;;;2.58;;
41719;SDS011;27405;53.316;-6.294;2023-03-14T02:32:47;8.02;;;2.67;;
41719;SDS011;27405;53.316;-6.294;2023-03-14T02:35:21;5.15;;;2.30;;
41719;SDS011;27405;53.316;-6.294;2023-03-14T02:37:53;10.93;;;2.80;;
41719;SDS011;27405;53.316;-6.294;2023-03-14T02:40:37;6.32;;;2.55;;
41719;SDS011;27405;53.316;-6.294;2023-03-14T02:43:03;6.00;;;2.50;;
41719;SDS011;27405;53.316;-6.294;2023-03-14T02:45:32;7.28;;;2.38;;
41719;SDS011;27405;53.316;-6.294;2023-03-14T02:48:07;5.20;;;2.20;;
41719;SDS011;27405;53.316;-6.294;2023-03-14T02:50:37;5.93;;;2.35;;
41719;SDS011;27405;53.316;-6.294;2023-03-14T02:53:03;6.65;;;2.42;;
41719;SDS011;27405;53.316;-6.294;2023-03-14T02:55:29;7.00;;;2.38;;
41719;SDS011;27405;53.316;-6.294;2023-03-14T02:57:55;2.92;;;1.90;;
41719;SDS011;27405;53.316;-6.294;2023-03-14T03:00:21;9.05;;;2.28;;
41719;SDS011;27405;53.316;-6.294;2023-03-14T03:02:46;6.28;;;2.25;;
41719;SDS011;27405;53.316;-6.294;2023-03-14T03:05:12;5.40;;;1.92;;
41719;SDS011;27405;53.316;-6.294;2023-03-14T03:07:37;5.68;;;1.50;;
41719;SDS011;27405;53.316;-6.294;2023-03-14T03:10:03;4.35;;;1.95;;
41719;SDS011;27405;53.316;-6.294;2023-03-14T03:12:29;4.20;;;1.92;;
41719;SDS011;27405;53.316;-6.294;2023-03-14T03:14:55;5.13;;;2.30;;
41719;SDS011;27405;53.316;-6.294;2023-03-14T03:17:21;7.32;;;2.58;;
41719;SDS011;27405;53.316;-6.294;2023-03-14T03:19:47;5.80;;;2.05;;
41719;SDS011;27405;53.316;-6.294;2023-03-14T03:22:13;4.72;;;1.95;;
41719;SDS011;27405;53.316;-6.294;2023-03-14T03:24:38;7.70;;;2.20;;
41719;SDS011;27405;53.316;-6.294;2023-03-14T03:27:04;5.40;;;2.13;;
41719;SDS011;27405;53.316;-6.294;2023-03-14T03:29:30;5.28;;;2.30;;
41719;SDS011;27405;53.316;-6.294;2023-03-14T03:31:55;4.20;;;2.17;;
41719;SDS011;27405;53.316;-6.294;2023-03-14T03:34:21;8.43;;;2.40;;
41719;SDS011;27405;53.316;-6.294;2023-03-14T03:36:47;6.57;;;2.33;;
41719;SDS011;27405;53.316;-6.294;2023-03-14T03:39:12;6.72;;;2.53;;
41719;SDS011;27405;53.316;-6.294;2023-03-14T03:41:38;4.90;;;1.88;;
41719;SDS011;27405;53.316;-6.294;2023-03-14T03:44:04;6.90;;;2.00;;
41719;SDS011;27405;53.316;-6.294;2023-03-14T03:46:31;5.22;;;1.80;;
41719;SDS011;27405;53.316;-6.294;2023-03-14T03:48:57;6.00;;;1.83;;
41719;SDS011;27405;53.316;-6.294;2023-03-14T03:51:24;5.88;;;1.80;;
41719;SDS011;27405;53.316;-6.294;2023-03-14T03:53:50;5.70;;;1.60;;
41719;SDS011;27405;53.316;-6.294;2023-03-14T03:56:16;6.43;;;1.85;;
41719;SDS011;27405;53.316;-6.294;2023-03-14T03:58:42;6.70;;;2.20;;
41719;SDS011;27405;53.316;-6.294;2023-03-14T04:01:08;6.78;;;2.10;;
41719;SDS011;27405;53.316;-6.294;2023-03-14T04:03:35;4.68;;;2.03;;
41719;SDS011;27405;53.316;-6.294;2023-03-14T04:06:08;6.57;;;2.20;;
41719;SDS011;27405;53.316;-6.294;2023-03-14T04:08:36;12.23;;;2.33;;
41719;SDS011;27405;53.316;-6.294;2023-03-14T04:11:02;6.20;;;1.98;;
41719;SDS011;27405;53.316;-6.294;2023-03-14T04:13:29;11.73;;;2.30;;
41719;SDS011;27405;53.316;-6.294;2023-03-14T04:15:55;6.65;;;2.10;;
41719;SDS011;27405;53.316;-6.294;2023-03-14T04:18:21;5.95;;;1.63;;
41719;SDS011;27405;53.316;-6.294;2023-03-14T04:20:53;9.20;;;2.03;;
41719;SDS011;27405;53.316;-6.294;2023-03-14T04:23:20;10.43;;;2.10;;
41719;SDS011;27405;53.316;-6.294;2023-03-14T04:25:49;7.63;;;1.92;;
41719;SDS011;27405;53.316;-6.294;2023-03-14T04:28:15;7.18;;;1.70;;
41719;SDS011;27405;53.316;-6.294;2023-03-14T04:30:40;8.75;;;2.03;;
41719;SDS011;27405;53.316;-6.294;2023-03-14T04:33:06;12.07;;;1.70;;
41719;SDS011;27405;53.316;-6.294;2023-03-14T04:35:32;8.55;;;1.50;;
41719;SDS011;27405;53.316;-6.294;2023-03-14T04:37:58;5.28;;;1.33;;
41719;SDS011;27405;53.316;-6.294;2023-03-14T04:40:24;10.45;;;1.60;;
41719;SDS011;27405;53.316;-6.294;2023-03-14T04:42:50;7.53;;;1.70;;
41719;SDS011;27405;53.316;-6.294;2023-03-14T04:45:15;8.73;;;1.90;;
41719;SDS011;27405;53.316;-6.294;2023-03-14T04:47:41;7.97;;;1.60;;
41719;SDS011;27405;53.316;-6.294;2023-03-14T04:50:07;8.02;;;1.50;;
41719;SDS011;27405;53.316;-6.294;2023-03-14T04:52:33;4.93;;;1.33;;
41719;SDS011;27405;53.316;-6.294;2023-03-14T04:54:59;11.30;;;1.75;;
41719;SDS011;27405;53.316;-6.294;2023-03-14T04:57:25;5.30;;;1.73;;
41719;SDS011;27405;53.316;-6.294;2023-03-14T04:59:50;5.63;;;1.40;;
41719;SDS011;27405;53.316;-6.294;2023-03-14T05:02:16;9.68;;;1.60;;
41719;SDS011;27405;53.316;-6.294;2023-03-14T05:04:41;9.27;;;1.85;;
41719;SDS011;27405;53.316;-6.294;2023-03-14T05:07:07;6.07;;;1.60;;
41719;SDS011;27405;53.316;-6.294;2023-03-14T05:09:33;6.63;;;1.75;;
41719;SDS011;27405;53.316;-6.294;2023-03-14T05:11:58;9.38;;;1.52;;
41719;SDS011;27405;53.316;-6.294;2023-03-14T05:14:24;7.40;;;1.60;;
41719;SDS011;27405;53.316;-6.294;2023-03-14T05:16:50;12.82;;;2.55;;
41719;SDS011;27405;53.316;-6.294;2023-03-14T05:19:15;4.35;;;1.00;;
41719;SDS011;27405;53.316;-6.294;2023-03-14T05:21:41;11.30;;;1.75;;
41719;SDS011;27405;53.316;-6.294;2023-03-14T05:24:07;10.38;;;2.13;;
41719;SDS011;27405;53.316;-6.294;2023-03-14T05:26:32;6.53;;;1.20;;
41719;SDS011;27405;53.316;-6.294;2023-03-14T05:28:58;7.03;;;1.20;;
41719;SDS011;27405;53.316;-6.294;2023-03-14T05:31:24;5.43;;;1.65;;
41719;SDS011;27405;53.316;-6.294;2023-03-14T05:33:49;7.95;;;1.90;;
41719;SDS011;27405;53.316;-6.294;2023-03-14T05:36:15;14.45;;;2.05;;
41719;SDS011;27405;53.316;-6.294;2023-03-14T05:38:40;9.05;;;2.00;;
41719;SDS011;27405;53.316;-6.294;2023-03-14T05:41:06;8.77;;;2.42;;
41719;SDS011;27405;53.316;-6.294;2023-03-14T05:43:32;9.23;;;2.20;;
41719;SDS011;27405;53.316;-6.294;2023-03-14T05:45:58;9.52;;;1.88;;
41719;SDS011;27405;53.316;-6.294;2023-03-14T05:48:23;7.15;;;1.60;;
41719;SDS011;27405;53.316;-6.294;2023-03-14T05:50:54;8.48;;;1.85;;
41719;SDS011;27405;53.316;-6.294;2023-03-14T05:53:20;8.10;;;1.70;;
41719;SDS011;27405;53.316;-6.294;2023-03-14T05:55:46;6.45;;;1.40;;
41719;SDS011;27405;53.316;-6.294;2023-03-14T05:58:12;5.43;;;1.77;;
41719;SDS011;27405;53.316;-6.294;2023-03-14T06:00:37;6.60;;;1.40;;
41719;SDS011;27405;53.316;-6.294;2023-03-14T06:03:03;5.07;;;1.40;;
41719;SDS011;27405;53.316;-6.294;2023-03-14T06:05:28;5.80;;;1.48;;
41719;SDS011;27405;53.316;-6.294;2023-03-14T06:07:54;4.85;;;1.60;;
41719;SDS011;27405;53.316;-6.294;2023-03-14T06:10:20;6.47;;;1.38;;
41719;SDS011;27405;53.316;-6.294;2023-03-14T06:12:45;5.53;;;1.30;;
41719;SDS011;27405;53.316;-6.294;2023-03-14T06:15:11;7.53;;;1.70;;
41719;SDS011;27405;53.316;-6.294;2023-03-14T06:17:37;4.28;;;1.73;;
41719;SDS011;27405;53.316;-6.294;2023-03-14T06:20:02;11.27;;;1.95;;
41719;SDS011;27405;53.316;-6.294;2023-03-14T06:22:28;9.80;;;1.83;;
41719;SDS011;27405;53.316;-6.294;2023-03-14T06:24:54;8.07;;;1.35;;
41719;SDS011;27405;53.316;-6.294;2023-03-14T06:27:20;8.00;;;1.40;;
41719;SDS011;27405;53.316;-6.294;2023-03-14T06:29:45;6.75;;;1.40;;
41719;SDS011;27405;53.316;-6.294;2023-03-14T06:32:11;11.35;;;1.85;;
41719;SDS011;27405;53.316;-6.294;2023-03-14T06:34:36;9.05;;;1.60;;
41719;SDS011;27405;53.316;-6.294;2023-03-14T06:37:03;4.65;;;1.67;;
41719;SDS011;27405;53.316;-6.294;2023-03-14T06:39:29;8.70;;;1.92;;
41719;SDS011;27405;53.316;-6.294;2023-03-14T06:41:56;10.38;;;2.70;;
41719;SDS011;27405;53.316;-6.294;2023-03-14T06:44:21;11.10;;;1.98;;
41719;SDS011;27405;53.316;-6.294;2023-03-14T06:46:47;5.07;;;1.58;;
41719;SDS011;27405;53.316;-6.294;2023-03-14T06:49:13;8.27;;;1.65;;
41719;SDS011;27405;53.316;-6.294;2023-03-14T06:51:39;7.10;;;1.75;;
41719;SDS011;27405;53.316;-6.294;2023-03-14T06:54:04;6.05;;;1.55;;
41719;SDS011;27405;53.316;-6.294;2023-03-14T06:56:30;9.98;;;2.00;;
41719;SDS011;27405;53.316;-6.294;2023-03-14T06:58:56;8.98;;;1.90;;
41719;SDS011;27405;53.316;-6.294;2023-03-14T07:01:25;10.23;;;2.00;;
41719;SDS011;27405;53.316;-6.294;2023-03-14T07:03:53;13.05;;;2.33;;
41719;SDS011;27405;53.316;-6.294;2023-03-14T07:06:19;9.07;;;1.92;;
41719;SDS011;27405;53.316;-6.294;2023-03-14T07:08:44;10.27;;;2.33;;
41719;SDS011;27405;53.316;-6.294;2023-03-14T07:11:10;9.32;;;2.20;;
41719;SDS011;27405;53.316;-6.294;2023-03-14T07:13:37;14.95;;;2.20;;
41719;SDS011;27405;53.316;-6.294;2023-03-14T07:16:04;10.15;;;2.38;;
41719;SDS011;27405;53.316;-6.294;2023-03-14T07:18:31;12.98;;;2.20;;
41719;SDS011;27405;53.316;-6.294;2023-03-14T07:20:57;9.68;;;1.83;;
41719;SDS011;27405;53.316;-6.294;2023-03-14T07:23:23;12.15;;;2.15;;
41719;SDS011;27405;53.316;-6.294;2023-03-14T07:25:49;8.88;;;1.88;;
41719;SDS011;27405;53.316;-6.294;2023-03-14T07:28:16;11.77;;;2.45;;
41719;SDS011;27405;53.316;-6.294;2023-03-14T07:30:41;8.52;;;2.20;;
41719;SDS011;27405;53.316;-6.294;2023-03-14T07:33:07;13.70;;;3.00;;
41719;SDS011;27405;53.316;-6.294;2023-03-14T07:35:33;11.10;;;2.67;;
41719;SDS011;27405;53.316;-6.294;2023-03-14T07:37:59;8.43;;;2.70;;
41719;SDS011;27405;53.316;-6.294;2023-03-14T07:40:24;14.48;;;5.50;;
41719;SDS011;27405;53.316;-6.294;2023-03-14T07:42:50;13.63;;;3.40;;
41719;SDS011;27405;53.316;-6.294;2023-03-14T07:45:20;13.02;;;3.03;;
41719;SDS011;27405;53.316;-6.294;2023-03-14T07:47:46;13.90;;;2.45;;
41719;SDS011;27405;53.316;-6.294;2023-03-14T07:50:12;10.93;;;2.40;;
41719;SDS011;27405;53.316;-6.294;2023-03-14T07:52:38;10.02;;;1.92;;
41719;SDS011;27405;53.316;-6.294;2023-03-14T07:55:03;7.50;;;2.10;;
41719;SDS011;27405;53.316;-6.294;2023-03-14T07:57:29;9.50;;;2.05;;
41719;SDS011;27405;53.316;-6.294;2023-03-14T07:59:55;12.45;;;2.30;;
41719;SDS011;27405;53.316;-6.294;2023-03-14T08:02:21;10.10;;;2.30;;
41719;SDS011;27405;53.316;-6.294;2023-03-14T08:04:48;16.88;;;3.40;;
41719;SDS011;27405;53.316;-6.294;2023-03-14T08:07:14;9.98;;;2.35;;
41719;SDS011;27405;53.316;-6.294;2023-03-14T08:09:40;17.50;;;2.60;;
41719;SDS011;27405;53.316;-6.294;2023-03-14T08:12:06;14.05;;;2.50;;
41719;SDS011;27405;53.316;-6.294;2023-03-14T08:14:32;14.07;;;2.45;;
41719;SDS011;27405;53.316;-6.294;2023-03-14T08:16:58;10.85;;;2.45;;
41719;SDS011;27405;53.316;-6.294;2023-03-14T08:19:24;15.55;;;2.55;;
41719;SDS011;27405;53.316;-6.294;2023-03-14T08:21:50;24.90;;;3.83;;
41719;SDS011;27405;53.316;-6.294;2023-03-14T08:24:16;15.98;;;3.95;;
41719;SDS011;27405;53.316;-6.294;2023-03-14T08:26:42;14.88;;;2.92;;
41719;SDS011;27405;53.316;-6.294;2023-03-14T08:29:07;14.40;;;2.60;;
41719;SDS011;27405;53.316;-6.294;2023-03-14T08:31:34;16.50;;;2.67;;
41719;SDS011;27405;53.316;-6.294;2023-03-14T08:34:01;14.75;;;2.92;;
41719;SDS011;27405;53.316;-6.294;2023-03-14T08:36:27;12.57;;;2.55;;
41719;SDS011;27405;53.316;-6.294;2023-03-14T08:38:53;12.82;;;2.88;;
41719;SDS011;27405;53.316;-6.294;2023-03-14T08:41:19;13.25;;;2.65;;
41719;SDS011;27405;53.316;-6.294;2023-03-14T08:43:45;13.68;;;2.65;;
41719;SDS011;27405;53.316;-6.294;2023-03-14T08:46:10;12.00;;;2.47;;
41719;SDS011;27405;53.316;-6.294;2023-03-14T08:48:37;12.65;;;2.47;;
41719;SDS011;27405;53.316;-6.294;2023-03-14T08:51:07;13.52;;;2.63;;
41719;SDS011;27405;53.316;-6.294;2023-03-14T08:53:34;11.73;;;2.53;;
41719;SDS011;27405;53.316;-6.294;2023-03-14T08:55:59;14.02;;;2.30;;
41719;SDS011;27405;53.316;-6.294;2023-03-14T08:58:25;13.85;;;2.75;;
41719;SDS011;27405;53.316;-6.294;2023-03-14T09:00:51;8.27;;;1.88;;
41719;SDS011;27405;53.316;-6.294;2023-03-14T09:03:16;13.57;;;2.15;;
41719;SDS011;27405;53.316;-6.294;2023-03-14T09:05:42;8.27;;;1.90;;
41719;SDS011;27405;53.316;-6.294;2023-03-14T09:08:08;10.70;;;2.08;;
41719;SDS011;27405;53.316;-6.294;2023-03-14T09:10:33;16.38;;;2.95;;
41719;SDS011;27405;53.316;-6.294;2023-03-14T09:12:59;14.40;;;2.40;;
41719;SDS011;27405;53.316;-6.294;2023-03-14T09:15:25;13.48;;;2.55;;
41719;SDS011;27405;53.316;-6.294;2023-03-14T09:17:51;15.82;;;2.60;;
41719;SDS011;27405;53.316;-6.294;2023-03-14T09:20:16;15.18;;;2.55;;
41719;SDS011;27405;53.316;-6.294;2023-03-14T09:22:42;13.02;;;2.50;;
41719;SDS011;27405;53.316;-6.294;2023-03-14T09:25:08;11.32;;;3.13;;
41719;SDS011;27405;53.316;-6.294;2023-03-14T09:27:34;12.05;;;2.53;;
41719;SDS011;27405;53.316;-6.294;2023-03-14T09:30:00;15.68;;;2.40;;
41719;SDS011;27405;53.316;-6.294;2023-03-14T09:32:26;8.00;;;2.00;;
41719;SDS011;27405;53.316;-6.294;2023-03-14T09:34:51;17.42;;;2.80;;
41719;SDS011;27405;53.316;-6.294;2023-03-14T09:37:17;10.45;;;2.40;;
41719;SDS011;27405;53.316;-6.294;2023-03-14T09:39:44;9.50;;;2.40;;
41719;SDS011;27405;53.316;-6.294;2023-03-14T09:42:13;15.32;;;2.40;;
41719;SDS011;27405;53.316;-6.294;2023-03-14T09:45:17;17.73;;;3.08;;
41719;SDS011;27405;53.316;-6.294;2023-03-14T09:47:53;13.85;;;2.33;;
41719;SDS011;27405;53.316;-6.294;2023-03-14T09:50:20;16.60;;;2.28;;
41719;SDS011;27405;53.316;-6.294;2023-03-14T09:52:47;15.55;;;2.58;;
41719;SDS011;27405;53.316;-6.294;2023-03-14T09:55:17;11.40;;;2.33;;
41719;SDS011;27405;53.316;-6.294;2023-03-14T09:57:46;14.77;;;2.50;;
41719;SDS011;27405;53.316;-6.294;2023-03-14T10:00:15;14.80;;;2.80;;
41719;SDS011;27405;53.316;-6.294;2023-03-14T10:02:56;12.32;;;2.53;;
41719;SDS011;27405;53.316;-6.294;2023-03-14T10:05:27;15.80;;;2.65;;
41719;SDS011;27405;53.316;-6.294;2023-03-14T10:07:54;13.00;;;2.60;;
41719;SDS011;27405;53.316;-6.294;2023-03-14T10:10:21;11.13;;;2.35;;
41719;SDS011;27405;53.316;-6.294;2023-03-14T10:15:42;15.50;;;2.60;;
41719;SDS011;27405;53.316;-6.294;2023-03-14T10:18:24;12.77;;;2.00;;
41719;SDS011;27405;53.316;-6.294;2023-03-14T10:21:16;9.55;;;2.00;;
41719;SDS011;27405;53.316;-6.294;2023-03-14T10:23:46;11.13;;;2.15;;
41719;SDS011;27405;53.316;-6.294;2023-03-14T10:26:16;12.63;;;2.53;;
41719;SDS011;27405;53.316;-6.294;2023-03-14T10:28:44;13.18;;;2.38;;
41719;SDS011;27405;53.316;-6.294;2023-03-14T10:31:12;13.02;;;2.67;;
41719;SDS011;27405;53.316;-6.294;2023-03-14T10:33:38;11.48;;;1.95;;
41719;SDS011;27405;53.316;-6.294;2023-03-14T10:38:56;14.43;;;2.72;;
41719;SDS011;27405;53.316;-6.294;2023-03-14T10:41:43;14.63;;;2.75;;
41719;SDS011;27405;53.316;-6.294;2023-03-14T10:44:18;14.90;;;2.60;;
41719;SDS011;27405;53.316;-6.294;2023-03-14T10:46:55;10.77;;;2.03;;
41719;SDS011;27405;53.316;-6.294;2023-03-14T10:49:28;10.90;;;2.20;;
41719;SDS011;27405;53.316;-6.294;2023-03-14T10:52:00;13.93;;;2.08;;
41719;SDS011;27405;53.316;-6.294;2023-03-14T10:54:38;17.08;;;3.00;;
41719;SDS011;27405;53.316;-6.294;2023-03-14T10:57:04;11.60;;;1.98;;
41719;SDS011;27405;53.316;-6.294;2023-03-14T10:59:35;12.32;;;2.60;;
41719;SDS011;27405;53.316;-6.294;2023-03-14T11:05:08;12.82;;;2.30;;
41719;SDS011;27405;53.316;-6.294;2023-03-14T11:07:45;14.48;;;2.25;;
41719;SDS011;27405;53.316;-6.294;2023-03-14T11:23:55;9.27;;;1.60;;
41719;SDS011;27405;53.316;-6.294;2023-03-14T11:32:08;8.75;;;1.90;;
41719;SDS011;27405;53.316;-6.294;2023-03-14T11:37:34;7.40;;;1.55;;
41719;SDS011;27405;53.316;-6.294;2023-03-14T11:40:13;10.25;;;1.83;;
41719;SDS011;27405;53.316;-6.294;2023-03-14T11:42:42;11.27;;;1.80;;
41719;SDS011;27405;53.316;-6.294;2023-03-14T11:45:18;12.60;;;1.30;;
41719;SDS011;27405;53.316;-6.294;2023-03-14T11:47:52;7.45;;;1.30;;
41719;SDS011;27405;53.316;-6.294;2023-03-14T11:50:31;9.82;;;1.58;;
41719;SDS011;27405;53.316;-6.294;2023-03-14T11:56:03;12.57;;;1.65;;
41719;SDS011;27405;53.316;-6.294;2023-03-14T11:58:33;5.72;;;1.25;;
41719;SDS011;27405;53.316;-6.294;2023-03-14T12:01:02;7.07;;;1.23;;
41719;SDS011;27405;53.316;-6.294;2023-03-14T12:03:36;7.57;;;1.45;;
41719;SDS011;27405;53.316;-6.294;2023-03-14T12:06:20;6.35;;;1.55;;
41719;SDS011;27405;53.316;-6.294;2023-03-14T12:08:56;7.05;;;1.38;;
41719;SDS011;27405;53.316;-6.294;2023-03-14T12:16:47;4.28;;;1.35;;
41719;SDS011;27405;53.316;-6.294;2023-03-14T12:22:00;5.60;;;1.35;;
41719;SDS011;27405;53.316;-6.294;2023-03-14T12:24:36;7.10;;;1.38;;
41719;SDS011;27405;53.316;-6.294;2023-03-14T12:27:06;3.60;;;1.20;;
41719;SDS011;27405;53.316;-6.294;2023-03-14T12:29:57;7.47;;;1.30;;
41719;SDS011;27405;53.316;-6.294;2023-03-14T12:32:25;4.15;;;1.25;;
41719;SDS011;27405;53.316;-6.294;2023-03-14T12:34:51;5.40;;;1.38;;
41719;SDS011;27405;53.316;-6.294;2023-03-14T12:37:28;2.90;;;1.45;;
41719;SDS011;27405;53.316;-6.294;2023-03-14T12:40:06;4.30;;;1.35;;
41719;SDS011;27405;53.316;-6.294;2023-03-14T12:42:54;6.60;;;1.58;;
41719;SDS011;27405;53.316;-6.294;2023-03-14T12:50:56;8.30;;;1.55;;
41719;SDS011;27405;53.316;-6.294;2023-03-14T12:59:28;4.50;;;0.80;;
41719;SDS011;27405;53.316;-6.294;2023-03-14T13:01:59;9.13;;;1.35;;
41719;SDS011;27405;53.316;-6.294;2023-03-14T13:04:36;9.52;;;1.70;;
41719;SDS011;27405;53.316;-6.294;2023-03-14T13:07:12;3.17;;;0.88;;
41719;SDS011;27405;53.316;-6.294;2023-03-14T13:09:52;6.88;;;1.42;;
41719;SDS011;27405;53.316;-6.294;2023-03-14T13:12:38;8.43;;;1.52;;
41719;SDS011;27405;53.316;-6.294;2023-03-14T13:15:15;11.75;;;1.20;;
41719;SDS011;27405;53.316;-6.294;2023-03-14T13:17:43;5.05;;;1.50;;
41719;SDS011;27405;53.316;-6.294;2023-03-14T13:20:28;2.55;;;0.90;;
41719;SDS011;27405;53.316;-6.294;2023-03-14T13:23:00;5.32;;;1.33;;
41719;SDS011;27405;53.316;-6.294;2023-03-14T13:25:29;3.78;;;0.75;;
41719;SDS011;27405;53.316;-6.294;2023-03-14T13:27:58;7.20;;;0.95;;
41719;SDS011;27405;53.316;-6.294;2023-03-14T13:30:29;5.15;;;1.13;;
41719;SDS011;27405;53.316;-6.294;2023-03-14T13:33:04;4.85;;;1.55;;
41719;SDS011;27405;53.316;-6.294;2023-03-14T13:35:38;2.83;;;0.95;;
41719;SDS011;27405;53.316;-6.294;2023-03-14T13:38:13;8.82;;;1.20;;
41719;SDS011;27405;53.316;-6.294;2023-03-14T13:40:43;6.55;;;1.10;;
41719;SDS011;27405;53.316;-6.294;2023-03-14T13:48:47;3.92;;;0.90;;
41719;SDS011;27405;53.316;-6.294;2023-03-14T13:51:21;13.52;;;1.75;;
41719;SDS011;27405;53.316;-6.294;2023-03-14T13:53:51;3.47;;;0.80;;
41719;SDS011;27405;53.316;-6.294;2023-03-14T13:56:19;10.70;;;1.33;;
41719;SDS011;27405;53.316;-6.294;2023-03-14T13:58:47;3.53;;;1.10;;
41719;SDS011;27405;53.316;-6.294;2023-03-14T14:03:49;8.55;;;1.15;;
41719;SDS011;27405;53.316;-6.294;2023-03-14T14:06:22;2.58;;;0.52;;
41719;SDS011;27405;53.316;-6.294;2023-03-14T14:09:19;2.17;;;0.88;;
41719;SDS011;27405;53.316;-6.294;2023-03-14T14:12:03;4.20;;;0.88;;
41719;SDS011;27405;53.316;-6.294;2023-03-14T14:14:43;4.25;;;0.95;;
41719;SDS011;27405;53.316;-6.294;2023-03-14T14:17:13;5.97;;;1.10;;
41719;SDS011;27405;53.316;-6.294;2023-03-14T14:19:43;3.40;;;1.13;;
41719;SDS011;27405;53.316;-6.294;2023-03-14T14:22:10;4.30;;;1.10;;
41719;SDS011;27405;53.316;-6.294;2023-03-14T14:24:37;0.73;;;0.73;;
41719;SDS011;27405;53.316;-6.294;2023-03-14T14:27:20;5.22;;;1.20;;
41719;SDS011;27405;53.316;-6.294;2023-03-14T14:30:02;5.55;;;1.23;;
41719;SDS011;27405;53.316;-6.294;2023-03-14T14:32:37;5.25;;;1.25;;
41719;SDS011;27405;53.316;-6.294;2023-03-14T14:35:04;4.57;;;1.17;;
41719;SDS011;27405;53.316;-6.294;2023-03-14T14:37:31;3.15;;;1.33;;
41719;SDS011;27405;53.316;-6.294;2023-03-14T14:40:10;4.80;;;1.23;;
41719;SDS011;27405;53.316;-6.294;2023-03-14T14:42:46;3.00;;;1.40;;
41719;SDS011;27405;53.316;-6.294;2023-03-14T14:45:16;5.13;;;1.30;;
41719;SDS011;27405;53.316;-6.294;2023-03-14T14:47:53;2.25;;;1.13;;
41719;SDS011;27405;53.316;-6.294;2023-03-14T14:50:29;6.80;;;1.17;;
41719;SDS011;27405;53.316;-6.294;2023-03-14T14:53:00;8.23;;;0.82;;
41719;SDS011;27405;53.316;-6.294;2023-03-14T14:55:32;3.88;;;0.90;;
41719;SDS011;27405;53.316;-6.294;2023-03-14T14:58:11;3.75;;;1.48;;
41719;SDS011;27405;53.316;-6.294;2023-03-14T15:03:43;3.10;;;0.80;;
41719;SDS011;27405;53.316;-6.294;2023-03-14T15:06:12;3.45;;;1.13;;
41719;SDS011;27405;53.316;-6.294;2023-03-14T15:08:39;2.95;;;1.30;;
41719;SDS011;27405;53.316;-6.294;2023-03-14T15:11:05;5.22;;;2.00;;
41719;SDS011;27405;53.316;-6.294;2023-03-14T15:13:31;3.15;;;1.20;;
41719;SDS011;27405;53.316;-6.294;2023-03-14T15:15:56;3.13;;;1.10;;
41719;SDS011;27405;53.316;-6.294;2023-03-14T15:18:23;2.15;;;0.70;;
41719;SDS011;27405;53.316;-6.294;2023-03-14T15:20:50;5.63;;;2.65;;
41719;SDS011;27405;53.316;-6.294;2023-03-14T15:23:17;3.42;;;1.35;;
41719;SDS011;27405;53.316;-6.294;2023-03-14T15:25:44;2.22;;;1.08;;
41719;SDS011;27405;53.316;-6.294;2023-03-14T15:28:45;4.13;;;1.75;;
41719;SDS011;27405;53.316;-6.294;2023-03-14T15:31:04;7.00;;;2.30;;
41719;SDS011;27405;53.316;-6.294;2023-03-14T15:33:30;3.03;;;2.00;;
41719;SDS011;27405;53.316;-6.294;2023-03-14T15:35:55;4.22;;;1.58;;
41719;SDS011;27405;53.316;-6.294;2023-03-14T15:38:22;4.60;;;1.92;;
41719;SDS011;27405;53.316;-6.294;2023-03-14T15:40:51;3.92;;;1.50;;
41719;SDS011;27405;53.316;-6.294;2023-03-14T15:43:17;5.45;;;2.20;;
41719;SDS011;27405;53.316;-6.294;2023-03-14T15:45:44;3.85;;;1.67;;
41719;SDS011;27405;53.316;-6.294;2023-03-14T15:48:12;3.78;;;1.10;;
41719;SDS011;27405;53.316;-6.294;2023-03-14T15:50:40;4.55;;;1.27;;
41719;SDS011;27405;53.316;-6.294;2023-03-14T15:53:06;5.63;;;2.03;;
41719;SDS011;27405;53.316;-6.294;2023-03-14T15:55:32;5.53;;;2.20;;